sensor_id;sensor_type;location;lat;lon;timestamp;P1;durP1;ratioP1;P2;durP2;ratioP2
75649;SDS011;64245;51.282;22.494;2023-02-28T00:01:31;4.57;;;2.70;;
75649;SDS011;64245;51.282;22.494;2023-02-28T00:03:57;3.80;;;2.10;;
75649;SDS011;64245;51.282;22.494;2023-02-28T00:06:23;5.53;;;2.50;;
75649;SDS011;64245;51.282;22.494;2023-02-28T00:08:49;5.18;;;2.60;;
75649;SDS011;64245;51.282;22.494;2023-02-28T00:11:15;5.15;;;2.70;;
75649;SDS011;64245;51.282;22.494;2023-02-28T00:13:43;3.25;;;2.35;;
75649;SDS011;64245;51.282;22.494;2023-02-28T00:16:14;5.88;;;2.90;;
75649;SDS011;64245;51.282;22.494;2023-02-28T00:18:43;5.65;;;2.97;;
75649;SDS011;64245;51.282;22.494;2023-02-28T00:21:08;5.25;;;2.42;;
75649;SDS011;64245;51.282;22.494;2023-02-28T00:23:35;6.05;;;2.55;;
75649;SDS011;64245;51.282;22.494;2023-02-28T00:26:01;6.30;;;2.58;;
75649;SDS011;64245;51.282;22.494;2023-02-28T00:28:27;6.18;;;2.80;;
75649;SDS011;64245;51.282;22.494;2023-02-28T00:30:53;4.65;;;2.13;;
75649;SDS011;64245;51.282;22.494;2023-02-28T00:33:18;5.43;;;2.80;;
75649;SDS011;64245;51.282;22.494;2023-02-28T00:35:44;4.80;;;2.25;;
75649;SDS011;64245;51.282;22.494;2023-02-28T00:38:14;7.97;;;3.00;;
75649;SDS011;64245;51.282;22.494;2023-02-28T00:40:40;5.35;;;2.78;;
75649;SDS011;64245;51.282;22.494;2023-02-28T00:43:07;6.25;;;3.00;;
75649;SDS011;64245;51.282;22.494;2023-02-28T00:45:32;6.70;;;2.88;;
75649;SDS011;64245;51.282;22.494;2023-02-28T00:47:58;3.92;;;2.75;;
75649;SDS011;64245;51.282;22.494;2023-02-28T00:50:24;7.22;;;2.90;;
75649;SDS011;64245;51.282;22.494;2023-02-28T00:52:49;5.72;;;3.03;;
75649;SDS011;64245;51.282;22.494;2023-02-28T00:55:15;5.40;;;2.97;;
75649;SDS011;64245;51.282;22.494;2023-02-28T00:57:41;5.40;;;2.75;;
75649;SDS011;64245;51.282;22.494;2023-02-28T01:00:07;5.35;;;2.90;;
75649;SDS011;64245;51.282;22.494;2023-02-28T01:02:34;4.32;;;2.60;;
75649;SDS011;64245;51.282;22.494;2023-02-28T01:05:00;6.72;;;3.00;;
75649;SDS011;64245;51.282;22.494;2023-02-28T01:07:25;8.30;;;3.10;;
75649;SDS011;64245;51.282;22.494;2023-02-28T01:09:51;7.00;;;3.33;;
75649;SDS011;64245;51.282;22.494;2023-02-28T01:12:17;5.88;;;3.08;;
75649;SDS011;64245;51.282;22.494;2023-02-28T01:14:42;5.80;;;3.03;;
75649;SDS011;64245;51.282;22.494;2023-02-28T01:17:08;6.65;;;2.88;;
75649;SDS011;64245;51.282;22.494;2023-02-28T01:19:34;5.80;;;3.03;;
75649;SDS011;64245;51.282;22.494;2023-02-28T01:22:04;5.30;;;3.15;;
75649;SDS011;64245;51.282;22.494;2023-02-28T01:24:30;7.05;;;3.70;;
75649;SDS011;64245;51.282;22.494;2023-02-28T01:26:56;7.53;;;3.72;;
75649;SDS011;64245;51.282;22.494;2023-02-28T01:29:21;6.13;;;3.60;;
75649;SDS011;64245;51.282;22.494;2023-02-28T01:31:47;6.47;;;3.10;;
75649;SDS011;64245;51.282;22.494;2023-02-28T01:34:13;6.47;;;3.25;;
75649;SDS011;64245;51.282;22.494;2023-02-28T01:36:38;4.95;;;2.85;;
75649;SDS011;64245;51.282;22.494;2023-02-28T01:39:04;4.75;;;2.58;;
75649;SDS011;64245;51.282;22.494;2023-02-28T01:41:31;5.35;;;2.78;;
75649;SDS011;64245;51.282;22.494;2023-02-28T01:43:59;8.00;;;2.38;;
75649;SDS011;64245;51.282;22.494;2023-02-28T01:46:34;6.68;;;2.78;;
75649;SDS011;64245;51.282;22.494;2023-02-28T01:51:50;3.65;;;2.10;;
75649;SDS011;64245;51.282;22.494;2023-02-28T01:54:22;7.97;;;2.95;;
75649;SDS011;64245;51.282;22.494;2023-02-28T01:56:55;5.88;;;2.60;;
75649;SDS011;64245;51.282;22.494;2023-02-28T02:00:07;5.20;;;1.95;;
75649;SDS011;64245;51.282;22.494;2023-02-28T02:02:17;3.95;;;2.20;;
75649;SDS011;64245;51.282;22.494;2023-02-28T02:04:50;4.22;;;2.72;;
75649;SDS011;64245;51.282;22.494;2023-02-28T02:07:20;4.85;;;2.75;;
75649;SDS011;64245;51.282;22.494;2023-02-28T02:09:47;4.53;;;2.45;;
75649;SDS011;64245;51.282;22.494;2023-02-28T02:12:27;5.32;;;2.53;;
75649;SDS011;64245;51.282;22.494;2023-02-28T02:15:26;6.43;;;2.67;;
75649;SDS011;64245;51.282;22.494;2023-02-28T02:18:02;5.07;;;2.60;;
75649;SDS011;64245;51.282;22.494;2023-02-28T02:25:42;8.20;;;3.17;;
75649;SDS011;64245;51.282;22.494;2023-02-28T02:37:37;7.13;;;3.15;;
75649;SDS011;64245;51.282;22.494;2023-02-28T02:48:05;10.25;;;4.65;;
75649;SDS011;64245;51.282;22.494;2023-02-28T02:50:36;7.95;;;3.97;;
75649;SDS011;64245;51.282;22.494;2023-02-28T02:53:07;9.43;;;3.90;;
75649;SDS011;64245;51.282;22.494;2023-02-28T02:58:08;7.45;;;3.28;;
75649;SDS011;64245;51.282;22.494;2023-02-28T03:00:41;8.98;;;4.07;;
75649;SDS011;64245;51.282;22.494;2023-02-28T03:03:11;7.68;;;3.45;;
75649;SDS011;64245;51.282;22.494;2023-02-28T03:05:42;7.57;;;3.72;;
75649;SDS011;64245;51.282;22.494;2023-02-28T03:08:12;6.70;;;3.28;;
75649;SDS011;64245;51.282;22.494;2023-02-28T03:10:42;9.10;;;4.20;;
75649;SDS011;64245;51.282;22.494;2023-02-28T03:13:13;7.57;;;3.20;;
75649;SDS011;64245;51.282;22.494;2023-02-28T03:16:07;6.57;;;3.75;;
75649;SDS011;64245;51.282;22.494;2023-02-28T03:18:50;6.38;;;3.20;;
75649;SDS011;64245;51.282;22.494;2023-02-28T03:21:27;6.43;;;3.05;;
75649;SDS011;64245;51.282;22.494;2023-02-28T03:24:18;6.95;;;3.42;;
75649;SDS011;64245;51.282;22.494;2023-02-28T03:29:24;5.72;;;3.13;;
75649;SDS011;64245;51.282;22.494;2023-02-28T03:31:58;6.82;;;3.50;;
75649;SDS011;64245;51.282;22.494;2023-02-28T03:34:30;7.47;;;3.22;;
75649;SDS011;64245;51.282;22.494;2023-02-28T03:37:10;7.15;;;3.13;;
75649;SDS011;64245;51.282;22.494;2023-02-28T03:39:45;6.55;;;3.50;;
75649;SDS011;64245;51.282;22.494;2023-02-28T03:42:15;6.45;;;2.85;;
75649;SDS011;64245;51.282;22.494;2023-02-28T03:44:51;8.57;;;3.35;;
75649;SDS011;64245;51.282;22.494;2023-02-28T03:47:29;9.27;;;3.50;;
75649;SDS011;64245;51.282;22.494;2023-02-28T03:50:06;6.72;;;3.15;;
75649;SDS011;64245;51.282;22.494;2023-02-28T03:52:41;5.72;;;2.92;;
75649;SDS011;64245;51.282;22.494;2023-02-28T03:55:13;6.05;;;3.03;;
75649;SDS011;64245;51.282;22.494;2023-02-28T04:00:17;7.18;;;3.20;;
75649;SDS011;64245;51.282;22.494;2023-02-28T04:02:46;7.50;;;3.05;;
75649;SDS011;64245;51.282;22.494;2023-02-28T04:05:18;8.05;;;3.50;;
75649;SDS011;64245;51.282;22.494;2023-02-28T04:07:47;7.43;;;3.13;;
75649;SDS011;64245;51.282;22.494;2023-02-28T04:10:14;7.53;;;3.30;;
75649;SDS011;64245;51.282;22.494;2023-02-28T04:12:41;5.65;;;2.97;;
75649;SDS011;64245;51.282;22.494;2023-02-28T04:15:06;11.23;;;3.45;;
75649;SDS011;64245;51.282;22.494;2023-02-28T04:17:33;6.50;;;3.70;;
75649;SDS011;64245;51.282;22.494;2023-02-28T04:19:58;6.85;;;3.38;;
75649;SDS011;64245;51.282;22.494;2023-02-28T04:22:24;5.85;;;2.90;;
75649;SDS011;64245;51.282;22.494;2023-02-28T04:24:52;5.80;;;3.17;;
75649;SDS011;64245;51.282;22.494;2023-02-28T04:27:20;8.50;;;4.22;;
75649;SDS011;64245;51.282;22.494;2023-02-28T04:29:46;5.90;;;3.05;;
75649;SDS011;64245;51.282;22.494;2023-02-28T04:32:12;8.13;;;3.97;;
75649;SDS011;64245;51.282;22.494;2023-02-28T04:34:38;8.18;;;3.45;;
75649;SDS011;64245;51.282;22.494;2023-02-28T04:37:04;5.85;;;3.30;;
75649;SDS011;64245;51.282;22.494;2023-02-28T04:39:34;5.50;;;3.50;;
75649;SDS011;64245;51.282;22.494;2023-02-28T04:42:00;4.70;;;3.30;;
75649;SDS011;64245;51.282;22.494;2023-02-28T04:44:26;10.20;;;3.90;;
75649;SDS011;64245;51.282;22.494;2023-02-28T04:46:52;9.27;;;3.85;;
75649;SDS011;64245;51.282;22.494;2023-02-28T04:49:17;7.80;;;4.18;;
75649;SDS011;64245;51.282;22.494;2023-02-28T04:51:43;8.70;;;4.28;;
75649;SDS011;64245;51.282;22.494;2023-02-28T04:54:08;7.60;;;3.60;;
75649;SDS011;64245;51.282;22.494;2023-02-28T04:56:34;9.30;;;3.88;;
75649;SDS011;64245;51.282;22.494;2023-02-28T04:59:00;9.90;;;3.17;;
75649;SDS011;64245;51.282;22.494;2023-02-28T05:01:27;8.85;;;4.47;;
75649;SDS011;64245;51.282;22.494;2023-02-28T05:03:56;9.77;;;4.05;;
75649;SDS011;64245;51.282;22.494;2023-02-28T05:06:23;10.15;;;4.75;;
75649;SDS011;64245;51.282;22.494;2023-02-28T05:08:51;9.25;;;3.80;;
75649;SDS011;64245;51.282;22.494;2023-02-28T05:11:21;8.20;;;4.13;;
75649;SDS011;64245;51.282;22.494;2023-02-28T05:13:49;8.75;;;4.10;;
75649;SDS011;64245;51.282;22.494;2023-02-28T05:16:16;8.93;;;3.88;;
75649;SDS011;64245;51.282;22.494;2023-02-28T05:18:42;9.10;;;4.80;;
75649;SDS011;64245;51.282;22.494;2023-02-28T05:21:23;9.65;;;4.00;;
75649;SDS011;64245;51.282;22.494;2023-02-28T05:23:51;9.77;;;4.28;;
75649;SDS011;64245;51.282;22.494;2023-02-28T05:26:18;6.85;;;4.20;;
75649;SDS011;64245;51.282;22.494;2023-02-28T05:28:43;9.35;;;4.40;;
75649;SDS011;64245;51.282;22.494;2023-02-28T05:31:12;11.50;;;4.18;;
75649;SDS011;64245;51.282;22.494;2023-02-28T05:33:38;7.85;;;4.13;;
75649;SDS011;64245;51.282;22.494;2023-02-28T05:36:05;7.85;;;3.70;;
75649;SDS011;64245;51.282;22.494;2023-02-28T05:38:31;9.63;;;4.32;;
75649;SDS011;64245;51.282;22.494;2023-02-28T05:40:57;8.60;;;4.78;;
75649;SDS011;64245;51.282;22.494;2023-02-28T05:43:22;10.75;;;4.68;;
75649;SDS011;64245;51.282;22.494;2023-02-28T05:45:48;9.25;;;4.65;;
75649;SDS011;64245;51.282;22.494;2023-02-28T05:48:14;10.43;;;4.55;;
75649;SDS011;64245;51.282;22.494;2023-02-28T05:50:40;6.22;;;4.05;;
75649;SDS011;64245;51.282;22.494;2023-02-28T05:53:05;9.23;;;4.25;;
75649;SDS011;64245;51.282;22.494;2023-02-28T05:55:31;11.18;;;4.60;;
75649;SDS011;64245;51.282;22.494;2023-02-28T05:57:57;8.60;;;4.10;;
75649;SDS011;64245;51.282;22.494;2023-02-28T06:00:23;9.73;;;4.88;;
75649;SDS011;64245;51.282;22.494;2023-02-28T06:02:49;11.23;;;4.88;;
75649;SDS011;64245;51.282;22.494;2023-02-28T06:05:16;10.95;;;4.85;;
75649;SDS011;64245;51.282;22.494;2023-02-28T06:07:43;8.32;;;3.88;;
75649;SDS011;64245;51.282;22.494;2023-02-28T06:10:10;9.93;;;5.22;;
75649;SDS011;64245;51.282;22.494;2023-02-28T06:12:36;11.00;;;5.50;;
75649;SDS011;64245;51.282;22.494;2023-02-28T06:15:03;12.57;;;4.55;;
75649;SDS011;64245;51.282;22.494;2023-02-28T06:17:29;8.18;;;4.78;;
75649;SDS011;64245;51.282;22.494;2023-02-28T06:19:55;10.93;;;5.75;;
75649;SDS011;64245;51.282;22.494;2023-02-28T06:22:20;11.50;;;4.80;;
75649;SDS011;64245;51.282;22.494;2023-02-28T06:24:46;11.82;;;4.90;;
75649;SDS011;64245;51.282;22.494;2023-02-28T06:27:11;9.80;;;4.68;;
75649;SDS011;64245;51.282;22.494;2023-02-28T06:29:37;9.85;;;4.65;;
75649;SDS011;64245;51.282;22.494;2023-02-28T06:32:04;11.27;;;5.07;;
75649;SDS011;64245;51.282;22.494;2023-02-28T06:34:31;13.80;;;5.20;;
75649;SDS011;64245;51.282;22.494;2023-02-28T06:36:58;10.65;;;4.45;;
75649;SDS011;64245;51.282;22.494;2023-02-28T06:39:30;10.10;;;4.22;;
75649;SDS011;64245;51.282;22.494;2023-02-28T06:41:56;8.60;;;4.38;;
75649;SDS011;64245;51.282;22.494;2023-02-28T06:44:22;11.15;;;5.13;;
75649;SDS011;64245;51.282;22.494;2023-02-28T06:46:49;11.05;;;4.93;;
75649;SDS011;64245;51.282;22.494;2023-02-28T06:49:15;9.25;;;4.50;;
75649;SDS011;64245;51.282;22.494;2023-02-28T06:51:41;12.35;;;4.85;;
75649;SDS011;64245;51.282;22.494;2023-02-28T06:54:12;11.23;;;4.93;;
75649;SDS011;64245;51.282;22.494;2023-02-28T06:56:38;9.45;;;4.45;;
75649;SDS011;64245;51.282;22.494;2023-02-28T06:59:04;14.35;;;5.65;;
75649;SDS011;64245;51.282;22.494;2023-02-28T07:01:30;10.73;;;5.03;;
75649;SDS011;64245;51.282;22.494;2023-02-28T07:03:58;18.77;;;6.65;;
75649;SDS011;64245;51.282;22.494;2023-02-28T07:06:25;14.07;;;6.50;;
75649;SDS011;64245;51.282;22.494;2023-02-28T07:08:52;17.55;;;6.43;;
75649;SDS011;64245;51.282;22.494;2023-02-28T07:11:19;17.83;;;7.32;;
75649;SDS011;64245;51.282;22.494;2023-02-28T07:13:48;12.55;;;6.93;;
75649;SDS011;64245;51.282;22.494;2023-02-28T07:16:15;18.48;;;7.53;;
75649;SDS011;64245;51.282;22.494;2023-02-28T07:18:41;17.92;;;8.15;;
75649;SDS011;64245;51.282;22.494;2023-02-28T07:21:07;13.48;;;6.80;;
75649;SDS011;64245;51.282;22.494;2023-02-28T07:23:35;11.82;;;6.82;;
75649;SDS011;64245;51.282;22.494;2023-02-28T07:26:03;12.65;;;6.35;;
75649;SDS011;64245;51.282;22.494;2023-02-28T07:28:29;11.40;;;5.68;;
75649;SDS011;64245;51.282;22.494;2023-02-28T07:30:55;10.77;;;5.13;;
75649;SDS011;64245;51.282;22.494;2023-02-28T07:33:20;7.65;;;4.03;;
75649;SDS011;64245;51.282;22.494;2023-02-28T07:35:46;9.27;;;4.50;;
75649;SDS011;64245;51.282;22.494;2023-02-28T07:38:12;9.25;;;5.38;;
75649;SDS011;64245;51.282;22.494;2023-02-28T07:40:39;11.00;;;4.28;;
75649;SDS011;64245;51.282;22.494;2023-02-28T07:43:05;11.98;;;4.90;;
75649;SDS011;64245;51.282;22.494;2023-02-28T07:45:30;10.10;;;3.95;;
75649;SDS011;64245;51.282;22.494;2023-02-28T07:47:59;7.18;;;3.20;;
75649;SDS011;64245;51.282;22.494;2023-02-28T07:50:25;7.47;;;3.50;;
75649;SDS011;64245;51.282;22.494;2023-02-28T07:52:54;6.88;;;3.75;;
75649;SDS011;64245;51.282;22.494;2023-02-28T07:55:20;8.65;;;3.70;;
75649;SDS011;64245;51.282;22.494;2023-02-28T07:57:45;8.38;;;3.45;;
75649;SDS011;64245;51.282;22.494;2023-02-28T08:00:11;7.47;;;3.80;;
75649;SDS011;64245;51.282;22.494;2023-02-28T08:02:38;8.85;;;4.05;;
75649;SDS011;64245;51.282;22.494;2023-02-28T08:05:05;8.82;;;4.10;;
75649;SDS011;64245;51.282;22.494;2023-02-28T08:07:31;7.68;;;3.70;;
75649;SDS011;64245;51.282;22.494;2023-02-28T08:09:58;10.57;;;3.70;;
75649;SDS011;64245;51.282;22.494;2023-02-28T08:12:24;7.50;;;3.65;;
75649;SDS011;64245;51.282;22.494;2023-02-28T08:14:50;7.15;;;3.88;;
75649;SDS011;64245;51.282;22.494;2023-02-28T08:17:16;7.05;;;3.70;;
75649;SDS011;64245;51.282;22.494;2023-02-28T08:19:42;6.07;;;3.33;;
75649;SDS011;64245;51.282;22.494;2023-02-28T08:22:10;6.60;;;3.80;;
75649;SDS011;64245;51.282;22.494;2023-02-28T08:24:36;10.15;;;4.93;;
75649;SDS011;64245;51.282;22.494;2023-02-28T08:27:02;9.55;;;4.57;;
75649;SDS011;64245;51.282;22.494;2023-02-28T08:29:27;8.20;;;4.25;;
75649;SDS011;64245;51.282;22.494;2023-02-28T08:31:53;8.90;;;4.80;;
75649;SDS011;64245;51.282;22.494;2023-02-28T08:34:18;12.68;;;4.65;;
75649;SDS011;64245;51.282;22.494;2023-02-28T08:36:44;7.25;;;3.72;;
75649;SDS011;64245;51.282;22.494;2023-02-28T08:39:11;10.27;;;5.28;;
75649;SDS011;64245;51.282;22.494;2023-02-28T08:41:37;10.48;;;4.43;;
75649;SDS011;64245;51.282;22.494;2023-02-28T08:44:03;9.65;;;4.63;;
75649;SDS011;64245;51.282;22.494;2023-02-28T08:46:29;6.38;;;3.78;;
75649;SDS011;64245;51.282;22.494;2023-02-28T08:48:55;9.30;;;4.50;;
75649;SDS011;64245;51.282;22.494;2023-02-28T08:51:25;9.43;;;4.50;;
75649;SDS011;64245;51.282;22.494;2023-02-28T08:53:55;10.57;;;4.35;;
75649;SDS011;64245;51.282;22.494;2023-02-28T08:56:23;9.75;;;4.43;;
75649;SDS011;64245;51.282;22.494;2023-02-28T08:58:49;10.38;;;4.35;;
75649;SDS011;64245;51.282;22.494;2023-02-28T09:01:20;8.43;;;4.40;;
75649;SDS011;64245;51.282;22.494;2023-02-28T09:03:48;6.72;;;4.05;;
75649;SDS011;64245;51.282;22.494;2023-02-28T09:06:15;11.23;;;5.05;;
75649;SDS011;64245;51.282;22.494;2023-02-28T09:08:41;7.65;;;4.45;;
75649;SDS011;64245;51.282;22.494;2023-02-28T09:11:08;6.93;;;4.22;;
75649;SDS011;64245;51.282;22.494;2023-02-28T09:13:34;10.68;;;4.93;;
75649;SDS011;64245;51.282;22.494;2023-02-28T09:16:01;9.20;;;4.30;;
75649;SDS011;64245;51.282;22.494;2023-02-28T09:18:28;8.05;;;5.10;;
75649;SDS011;64245;51.282;22.494;2023-02-28T09:20:54;8.70;;;4.82;;
75649;SDS011;64245;51.282;22.494;2023-02-28T09:23:20;6.93;;;3.83;;
75649;SDS011;64245;51.282;22.494;2023-02-28T09:25:47;11.50;;;4.80;;
75649;SDS011;64245;51.282;22.494;2023-02-28T09:28:14;11.40;;;4.78;;
75649;SDS011;64245;51.282;22.494;2023-02-28T09:30:46;9.70;;;4.90;;
75649;SDS011;64245;51.282;22.494;2023-02-28T09:33:13;5.05;;;3.47;;
75649;SDS011;64245;51.282;22.494;2023-02-28T09:35:40;9.30;;;4.22;;
75649;SDS011;64245;51.282;22.494;2023-02-28T09:38:08;6.70;;;4.03;;
75649;SDS011;64245;51.282;22.494;2023-02-28T09:40:35;8.85;;;4.68;;
75649;SDS011;64245;51.282;22.494;2023-02-28T09:43:04;5.95;;;2.60;;
75649;SDS011;64245;51.282;22.494;2023-02-28T09:45:38;12.25;;;5.10;;
75649;SDS011;64245;51.282;22.494;2023-02-28T09:48:09;7.40;;;4.25;;
75649;SDS011;64245;51.282;22.494;2023-02-28T09:53:19;9.65;;;4.35;;
75649;SDS011;64245;51.282;22.494;2023-02-28T09:58:45;9.75;;;4.97;;
75649;SDS011;64245;51.282;22.494;2023-02-28T10:03:51;8.95;;;4.45;;
75649;SDS011;64245;51.282;22.494;2023-02-28T10:06:25;9.68;;;5.47;;
75649;SDS011;64245;51.282;22.494;2023-02-28T10:09:02;8.00;;;4.45;;
75649;SDS011;64245;51.282;22.494;2023-02-28T10:16:34;11.05;;;5.15;;
75649;SDS011;64245;51.282;22.494;2023-02-28T10:19:30;9.23;;;4.43;;
75649;SDS011;64245;51.282;22.494;2023-02-28T10:22:44;7.75;;;3.90;;
75649;SDS011;64245;51.282;22.494;2023-02-28T10:25:21;9.63;;;5.10;;
75649;SDS011;64245;51.282;22.494;2023-02-28T10:27:49;6.70;;;3.78;;
75649;SDS011;64245;51.282;22.494;2023-02-28T10:30:18;11.20;;;5.82;;
75649;SDS011;64245;51.282;22.494;2023-02-28T10:32:47;9.45;;;5.57;;
75649;SDS011;64245;51.282;22.494;2023-02-28T10:37:50;9.60;;;5.30;;
75649;SDS011;64245;51.282;22.494;2023-02-28T10:40:35;9.43;;;5.47;;
75649;SDS011;64245;51.282;22.494;2023-02-28T10:43:02;8.82;;;5.10;;
75649;SDS011;64245;51.282;22.494;2023-02-28T10:45:53;9.15;;;4.78;;
75649;SDS011;64245;51.282;22.494;2023-02-28T10:56:32;8.93;;;5.65;;
75649;SDS011;64245;51.282;22.494;2023-02-28T11:01:14;10.57;;;5.25;;
75649;SDS011;64245;51.282;22.494;2023-02-28T11:03:42;10.95;;;6.00;;
75649;SDS011;64245;51.282;22.494;2023-02-28T11:06:08;9.85;;;5.47;;
75649;SDS011;64245;51.282;22.494;2023-02-28T11:09:17;9.48;;;6.05;;
75649;SDS011;64245;51.282;22.494;2023-02-28T11:11:49;8.85;;;5.55;;
75649;SDS011;64245;51.282;22.494;2023-02-28T11:14:22;10.98;;;5.88;;
75649;SDS011;64245;51.282;22.494;2023-02-28T11:16:51;10.60;;;5.85;;
75649;SDS011;64245;51.282;22.494;2023-02-28T11:19:28;11.52;;;6.93;;
75649;SDS011;64245;51.282;22.494;2023-02-28T11:22:03;9.70;;;5.82;;
75649;SDS011;64245;51.282;22.494;2023-02-28T11:24:31;9.10;;;5.90;;
75649;SDS011;64245;51.282;22.494;2023-02-28T11:27:00;9.57;;;5.53;;
75649;SDS011;64245;51.282;22.494;2023-02-28T11:29:32;9.93;;;5.60;;
75649;SDS011;64245;51.282;22.494;2023-02-28T11:32:19;9.75;;;6.00;;
75649;SDS011;64245;51.282;22.494;2023-02-28T11:34:47;9.73;;;6.57;;
75649;SDS011;64245;51.282;22.494;2023-02-28T11:37:47;9.63;;;6.22;;
75649;SDS011;64245;51.282;22.494;2023-02-28T11:40:18;5.65;;;3.63;;
75649;SDS011;64245;51.282;22.494;2023-02-28T11:45:36;12.85;;;6.22;;
75649;SDS011;64245;51.282;22.494;2023-02-28T11:59:13;10.40;;;6.97;;
75649;SDS011;64245;51.282;22.494;2023-02-28T12:01:59;11.73;;;7.20;;
75649;SDS011;64245;51.282;22.494;2023-02-28T12:07:20;11.75;;;7.10;;
75649;SDS011;64245;51.282;22.494;2023-02-28T12:10:37;12.05;;;7.65;;
75649;SDS011;64245;51.282;22.494;2023-02-28T12:13:14;13.13;;;6.95;;
75649;SDS011;64245;51.282;22.494;2023-02-28T12:27:03;9.95;;;6.50;;
75649;SDS011;64245;51.282;22.494;2023-02-28T12:32:31;11.13;;;6.55;;
75649;SDS011;64245;51.282;22.494;2023-02-28T12:37:46;11.75;;;6.72;;
75649;SDS011;64245;51.282;22.494;2023-02-28T12:40:15;10.50;;;6.22;;
75649;SDS011;64245;51.282;22.494;2023-02-28T12:42:46;8.27;;;6.25;;
75649;SDS011;64245;51.282;22.494;2023-02-28T12:45:20;10.15;;;6.20;;
75649;SDS011;64245;51.282;22.494;2023-02-28T12:47:50;12.93;;;7.32;;
75649;SDS011;64245;51.282;22.494;2023-02-28T12:50:22;9.65;;;6.45;;
75649;SDS011;64245;51.282;22.494;2023-02-28T12:55:28;10.18;;;6.30;;
75649;SDS011;64245;51.282;22.494;2023-02-28T13:03:51;8.48;;;6.00;;
75649;SDS011;64245;51.282;22.494;2023-02-28T13:06:43;12.40;;;6.53;;
75649;SDS011;64245;51.282;22.494;2023-02-28T13:09:10;9.85;;;6.25;;
75649;SDS011;64245;51.282;22.494;2023-02-28T13:11:40;10.73;;;6.72;;
75649;SDS011;64245;51.282;22.494;2023-02-28T13:19:37;9.35;;;6.22;;
75649;SDS011;64245;51.282;22.494;2023-02-28T13:22:19;12.18;;;6.70;;
75649;SDS011;64245;51.282;22.494;2023-02-28T13:27:59;10.10;;;6.32;;
75649;SDS011;64245;51.282;22.494;2023-02-28T13:38:21;9.68;;;6.43;;
75649;SDS011;64245;51.282;22.494;2023-02-28T13:40:49;8.10;;;5.50;;
75649;SDS011;64245;51.282;22.494;2023-02-28T13:43:16;12.82;;;6.40;;
75649;SDS011;64245;51.282;22.494;2023-02-28T13:48:39;9.63;;;5.63;;
75649;SDS011;64245;51.282;22.494;2023-02-28T13:54:50;10.40;;;5.85;;
75649;SDS011;64245;51.282;22.494;2023-02-28T14:00:14;10.20;;;6.30;;
75649;SDS011;64245;51.282;22.494;2023-02-28T14:02:35;11.02;;;6.28;;
75649;SDS011;64245;51.282;22.494;2023-02-28T14:05:05;7.22;;;3.88;;
75649;SDS011;64245;51.282;22.494;2023-02-28T14:07:40;11.45;;;6.57;;
75649;SDS011;64245;51.282;22.494;2023-02-28T14:10:20;10.27;;;6.57;;
75649;SDS011;64245;51.282;22.494;2023-02-28T14:13:00;12.75;;;6.68;;
75649;SDS011;64245;51.282;22.494;2023-02-28T14:17:58;24.25;;;6.03;;
75649;SDS011;64245;51.282;22.494;2023-02-28T14:25:59;8.20;;;5.13;;
75649;SDS011;64245;51.282;22.494;2023-02-28T14:31:42;12.68;;;6.00;;
75649;SDS011;64245;51.282;22.494;2023-02-28T14:37:28;14.38;;;6.93;;
75649;SDS011;64245;51.282;22.494;2023-02-28T14:39:57;10.15;;;5.95;;
75649;SDS011;64245;51.282;22.494;2023-02-28T14:42:30;11.80;;;6.30;;
75649;SDS011;64245;51.282;22.494;2023-02-28T14:44:58;10.85;;;6.15;;
75649;SDS011;64245;51.282;22.494;2023-02-28T14:47:26;10.63;;;5.95;;
75649;SDS011;64245;51.282;22.494;2023-02-28T14:49:55;11.27;;;7.13;;
75649;SDS011;64245;51.282;22.494;2023-02-28T14:52:24;13.02;;;6.80;;
75649;SDS011;64245;51.282;22.494;2023-02-28T14:55:05;11.93;;;5.60;;
75649;SDS011;64245;51.282;22.494;2023-02-28T14:57:41;15.73;;;7.00;;
75649;SDS011;64245;51.282;22.494;2023-02-28T15:00:22;10.82;;;6.38;;
75649;SDS011;64245;51.282;22.494;2023-02-28T15:02:50;13.40;;;6.57;;
75649;SDS011;64245;51.282;22.494;2023-02-28T15:08:15;13.10;;;6.72;;
75649;SDS011;64245;51.282;22.494;2023-02-28T15:10:45;14.07;;;6.20;;
75649;SDS011;64245;51.282;22.494;2023-02-28T15:13:17;11.90;;;7.13;;
75649;SDS011;64245;51.282;22.494;2023-02-28T15:15:45;14.57;;;7.68;;
75649;SDS011;64245;51.282;22.494;2023-02-28T15:20:50;13.98;;;7.03;;
75649;SDS011;64245;51.282;22.494;2023-02-28T15:25:43;11.88;;;6.18;;
75649;SDS011;64245;51.282;22.494;2023-02-28T15:28:11;11.13;;;6.28;;
75649;SDS011;64245;51.282;22.494;2023-02-28T15:30:49;12.55;;;6.65;;
75649;SDS011;64245;51.282;22.494;2023-02-28T15:33:18;11.48;;;6.18;;
75649;SDS011;64245;51.282;22.494;2023-02-28T15:35:47;12.00;;;6.25;;
75649;SDS011;64245;51.282;22.494;2023-02-28T15:38:23;11.80;;;6.78;;
75649;SDS011;64245;51.282;22.494;2023-02-28T15:40:54;12.45;;;6.50;;
75649;SDS011;64245;51.282;22.494;2023-02-28T15:43:31;13.95;;;6.80;;
75649;SDS011;64245;51.282;22.494;2023-02-28T15:45:59;13.98;;;6.97;;
75649;SDS011;64245;51.282;22.494;2023-02-28T15:48:31;14.20;;;6.88;;
75649;SDS011;64245;51.282;22.494;2023-02-28T15:51:02;15.35;;;7.20;;
75649;SDS011;64245;51.282;22.494;2023-02-28T15:53:34;12.77;;;6.38;;
75649;SDS011;64245;51.282;22.494;2023-02-28T15:56:04;13.93;;;6.68;;
75649;SDS011;64245;51.282;22.494;2023-02-28T15:58:32;16.08;;;6.82;;
75649;SDS011;64245;51.282;22.494;2023-02-28T16:01:01;14.93;;;7.13;;
75649;SDS011;64245;51.282;22.494;2023-02-28T16:03:38;13.45;;;6.30;;
75649;SDS011;64245;51.282;22.494;2023-02-28T16:06:20;13.63;;;7.20;;
75649;SDS011;64245;51.282;22.494;2023-02-28T16:08:51;11.82;;;6.65;;
75649;SDS011;64245;51.282;22.494;2023-02-28T16:11:18;16.05;;;8.45;;
75649;SDS011;64245;51.282;22.494;2023-02-28T16:13:47;20.80;;;8.98;;
75649;SDS011;64245;51.282;22.494;2023-02-28T16:16:17;18.70;;;8.20;;
75649;SDS011;64245;51.282;22.494;2023-02-28T16:18:43;16.33;;;7.20;;
75649;SDS011;64245;51.282;22.494;2023-02-28T16:21:09;16.35;;;7.10;;
75649;SDS011;64245;51.282;22.494;2023-02-28T16:23:34;16.13;;;8.10;;
75649;SDS011;64245;51.282;22.494;2023-02-28T16:26:00;20.85;;;8.68;;
75649;SDS011;64245;51.282;22.494;2023-02-28T16:28:30;17.85;;;8.68;;
75649;SDS011;64245;51.282;22.494;2023-02-28T16:31:01;18.63;;;8.52;;
75649;SDS011;64245;51.282;22.494;2023-02-28T16:33:30;16.15;;;8.10;;
75649;SDS011;64245;51.282;22.494;2023-02-28T16:35:56;20.17;;;9.85;;
75649;SDS011;64245;51.282;22.494;2023-02-28T16:38:23;21.02;;;9.57;;
75649;SDS011;64245;51.282;22.494;2023-02-28T16:40:50;17.63;;;8.90;;
75649;SDS011;64245;51.282;22.494;2023-02-28T16:43:18;19.95;;;9.25;;
75649;SDS011;64245;51.282;22.494;2023-02-28T16:45:47;25.88;;;10.45;;
75649;SDS011;64245;51.282;22.494;2023-02-28T16:48:14;25.70;;;10.60;;
75649;SDS011;64245;51.282;22.494;2023-02-28T16:50:41;22.48;;;11.20;;
75649;SDS011;64245;51.282;22.494;2023-02-28T16:53:10;23.27;;;11.63;;
75649;SDS011;64245;51.282;22.494;2023-02-28T16:55:35;27.25;;;11.15;;
75649;SDS011;64245;51.282;22.494;2023-02-28T16:58:02;25.75;;;12.13;;
75649;SDS011;64245;51.282;22.494;2023-02-28T17:00:29;20.52;;;10.27;;
75649;SDS011;64245;51.282;22.494;2023-02-28T17:02:56;24.88;;;11.82;;
75649;SDS011;64245;51.282;22.494;2023-02-28T17:05:22;22.35;;;10.85;;
75649;SDS011;64245;51.282;22.494;2023-02-28T17:07:49;23.52;;;11.80;;
75649;SDS011;64245;51.282;22.494;2023-02-28T17:10:17;28.08;;;12.13;;
75649;SDS011;64245;51.282;22.494;2023-02-28T17:12:48;29.98;;;13.10;;